sensor_id;sensor_type;location;lat;lon;timestamp;P1;durP1;ratioP1;P2;durP2;ratioP2
46407;SDS011;32110;45.724;21.276;2023-05-07T00:00:48;10.70;;;6.15;;
46407;SDS011;32110;45.724;21.276;2023-05-07T00:03:14;8.18;;;5.78;;
46407;SDS011;32110;45.724;21.276;2023-05-07T00:05:40;6.75;;;5.50;;
46407;SDS011;32110;45.724;21.276;2023-05-07T00:08:06;8.88;;;6.03;;
46407;SDS011;32110;45.724;21.276;2023-05-07T00:10:31;7.63;;;5.85;;
46407;SDS011;32110;45.724;21.276;2023-05-07T00:12:57;10.10;;;6.15;;
46407;SDS011;32110;45.724;21.276;2023-05-07T00:15:22;10.73;;;6.20;;
46407;SDS011;32110;45.724;21.276;2023-05-07T00:17:48;11.75;;;6.32;;
46407;SDS011;32110;45.724;21.276;2023-05-07T00:20:13;9.43;;;6.03;;
46407;SDS011;32110;45.724;21.276;2023-05-07T00:22:38;10.65;;;6.43;;
46407;SDS011;32110;45.724;21.276;2023-05-07T00:25:04;8.32;;;6.47;;
46407;SDS011;32110;45.724;21.276;2023-05-07T00:27:30;8.88;;;6.05;;
46407;SDS011;32110;45.724;21.276;2023-05-07T00:29:56;10.07;;;6.88;;
46407;SDS011;32110;45.724;21.276;2023-05-07T00:32:21;11.80;;;6.97;;
46407;SDS011;32110;45.724;21.276;2023-05-07T00:34:46;13.48;;;6.60;;
46407;SDS011;32110;45.724;21.276;2023-05-07T00:37:12;8.75;;;6.28;;
46407;SDS011;32110;45.724;21.276;2023-05-07T00:39:37;9.45;;;6.65;;
46407;SDS011;32110;45.724;21.276;2023-05-07T00:42:02;10.90;;;7.10;;
46407;SDS011;32110;45.724;21.276;2023-05-07T00:44:28;10.30;;;6.20;;
46407;SDS011;32110;45.724;21.276;2023-05-07T00:46:54;11.77;;;6.40;;
46407;SDS011;32110;45.724;21.276;2023-05-07T00:49:21;9.75;;;5.88;;
46407;SDS011;32110;45.724;21.276;2023-05-07T00:51:50;11.10;;;6.40;;
46407;SDS011;32110;45.724;21.276;2023-05-07T00:54:15;10.15;;;6.47;;
46407;SDS011;32110;45.724;21.276;2023-05-07T00:56:41;11.80;;;6.65;;
46407;SDS011;32110;45.724;21.276;2023-05-07T00:59:06;9.77;;;6.13;;
46407;SDS011;32110;45.724;21.276;2023-05-07T01:01:32;15.70;;;6.82;;
46407;SDS011;32110;45.724;21.276;2023-05-07T01:03:58;11.05;;;6.68;;
46407;SDS011;32110;45.724;21.276;2023-05-07T01:06:24;8.80;;;6.32;;
46407;SDS011;32110;45.724;21.276;2023-05-07T01:08:52;12.02;;;6.72;;
46407;SDS011;32110;45.724;21.276;2023-05-07T01:11:21;14.07;;;7.05;;
46407;SDS011;32110;45.724;21.276;2023-05-07T01:13:47;9.27;;;6.50;;
46407;SDS011;32110;45.724;21.276;2023-05-07T01:16:15;8.82;;;6.13;;
46407;SDS011;32110;45.724;21.276;2023-05-07T01:18:40;11.35;;;6.53;;
46407;SDS011;32110;45.724;21.276;2023-05-07T01:21:06;11.57;;;6.38;;
46407;SDS011;32110;45.724;21.276;2023-05-07T01:23:35;10.40;;;6.43;;
46407;SDS011;32110;45.724;21.276;2023-05-07T01:26:01;10.10;;;6.07;;
46407;SDS011;32110;45.724;21.276;2023-05-07T01:28:26;10.38;;;6.50;;
46407;SDS011;32110;45.724;21.276;2023-05-07T01:30:56;10.70;;;6.30;;
46407;SDS011;32110;45.724;21.276;2023-05-07T01:33:29;10.13;;;6.22;;
46407;SDS011;32110;45.724;21.276;2023-05-07T01:35:58;10.48;;;6.28;;
46407;SDS011;32110;45.724;21.276;2023-05-07T01:38:29;9.55;;;6.50;;
46407;SDS011;32110;45.724;21.276;2023-05-07T01:40:55;11.77;;;6.28;;
46407;SDS011;32110;45.724;21.276;2023-05-07T01:43:21;10.60;;;7.22;;
46407;SDS011;32110;45.724;21.276;2023-05-07T01:45:46;12.27;;;7.72;;
46407;SDS011;32110;45.724;21.276;2023-05-07T01:48:14;9.60;;;7.15;;
46407;SDS011;32110;45.724;21.276;2023-05-07T01:50:40;17.73;;;7.20;;
46407;SDS011;32110;45.724;21.276;2023-05-07T01:53:07;13.50;;;7.35;;
46407;SDS011;32110;45.724;21.276;2023-05-07T01:55:33;14.10;;;7.22;;
46407;SDS011;32110;45.724;21.276;2023-05-07T01:57:58;14.15;;;7.45;;
46407;SDS011;32110;45.724;21.276;2023-05-07T02:00:24;12.05;;;7.32;;
46407;SDS011;32110;45.724;21.276;2023-05-07T02:02:49;12.20;;;7.47;;
46407;SDS011;32110;45.724;21.276;2023-05-07T02:05:14;15.45;;;7.97;;
46407;SDS011;32110;45.724;21.276;2023-05-07T02:07:40;12.30;;;8.00;;
46407;SDS011;32110;45.724;21.276;2023-05-07T02:10:05;14.52;;;8.63;;
46407;SDS011;32110;45.724;21.276;2023-05-07T02:12:31;14.15;;;7.88;;
46407;SDS011;32110;45.724;21.276;2023-05-07T02:14:56;14.07;;;7.57;;
46407;SDS011;32110;45.724;21.276;2023-05-07T02:17:22;11.15;;;7.53;;
46407;SDS011;32110;45.724;21.276;2023-05-07T02:19:47;14.98;;;8.30;;
46407;SDS011;32110;45.724;21.276;2023-05-07T02:22:12;17.48;;;8.70;;
46407;SDS011;32110;45.724;21.276;2023-05-07T02:24:38;12.10;;;8.02;;
46407;SDS011;32110;45.724;21.276;2023-05-07T02:27:03;12.73;;;8.18;;
46407;SDS011;32110;45.724;21.276;2023-05-07T02:29:29;14.50;;;8.55;;
46407;SDS011;32110;45.724;21.276;2023-05-07T02:31:54;16.58;;;8.27;;
46407;SDS011;32110;45.724;21.276;2023-05-07T02:34:20;14.30;;;8.57;;
46407;SDS011;32110;45.724;21.276;2023-05-07T02:36:46;11.63;;;7.78;;
46407;SDS011;32110;45.724;21.276;2023-05-07T02:39:12;11.90;;;7.55;;
46407;SDS011;32110;45.724;21.276;2023-05-07T02:41:37;11.05;;;8.10;;
46407;SDS011;32110;45.724;21.276;2023-05-07T02:44:03;14.07;;;8.25;;
46407;SDS011;32110;45.724;21.276;2023-05-07T02:46:28;11.32;;;7.95;;
46407;SDS011;32110;45.724;21.276;2023-05-07T02:48:54;10.90;;;7.70;;
46407;SDS011;32110;45.724;21.276;2023-05-07T02:51:20;16.00;;;7.80;;
46407;SDS011;32110;45.724;21.276;2023-05-07T02:53:47;13.68;;;7.65;;
46407;SDS011;32110;45.724;21.276;2023-05-07T02:56:12;14.48;;;8.15;;
46407;SDS011;32110;45.724;21.276;2023-05-07T02:58:38;15.55;;;8.07;;
46407;SDS011;32110;45.724;21.276;2023-05-07T03:01:07;16.08;;;7.88;;
46407;SDS011;32110;45.724;21.276;2023-05-07T03:03:33;13.98;;;7.63;;
46407;SDS011;32110;45.724;21.276;2023-05-07T03:05:59;16.45;;;9.15;;
46407;SDS011;32110;45.724;21.276;2023-05-07T03:08:24;17.13;;;8.27;;
46407;SDS011;32110;45.724;21.276;2023-05-07T03:10:50;13.38;;;7.88;;
46407;SDS011;32110;45.724;21.276;2023-05-07T03:13:16;10.57;;;7.72;;
46407;SDS011;32110;45.724;21.276;2023-05-07T03:15:41;14.73;;;8.60;;
46407;SDS011;32110;45.724;21.276;2023-05-07T03:18:07;13.90;;;8.27;;
46407;SDS011;32110;45.724;21.276;2023-05-07T03:20:32;15.93;;;8.18;;
46407;SDS011;32110;45.724;21.276;2023-05-07T03:22:58;13.75;;;8.23;;
46407;SDS011;32110;45.724;21.276;2023-05-07T03:25:23;14.52;;;7.97;;
46407;SDS011;32110;45.724;21.276;2023-05-07T03:27:49;13.07;;;8.13;;
46407;SDS011;32110;45.724;21.276;2023-05-07T03:30:14;13.05;;;8.65;;
46407;SDS011;32110;45.724;21.276;2023-05-07T03:32:40;16.77;;;8.20;;
46407;SDS011;32110;45.724;21.276;2023-05-07T03:35:05;13.68;;;8.15;;
46407;SDS011;32110;45.724;21.276;2023-05-07T03:37:31;18.08;;;9.00;;
46407;SDS011;32110;45.724;21.276;2023-05-07T03:39:56;16.60;;;8.90;;
46407;SDS011;32110;45.724;21.276;2023-05-07T03:42:23;14.93;;;9.90;;
46407;SDS011;32110;45.724;21.276;2023-05-07T03:44:49;15.63;;;9.40;;
46407;SDS011;32110;45.724;21.276;2023-05-07T03:47:14;17.75;;;9.65;;
46407;SDS011;32110;45.724;21.276;2023-05-07T03:49:40;13.77;;;9.18;;
46407;SDS011;32110;45.724;21.276;2023-05-07T03:52:05;16.38;;;9.60;;
46407;SDS011;32110;45.724;21.276;2023-05-07T03:54:31;17.23;;;10.32;;
46407;SDS011;32110;45.724;21.276;2023-05-07T03:56:57;17.42;;;10.60;;
46407;SDS011;32110;45.724;21.276;2023-05-07T03:59:22;17.40;;;10.38;;
46407;SDS011;32110;45.724;21.276;2023-05-07T04:01:48;18.73;;;11.35;;
46407;SDS011;32110;45.724;21.276;2023-05-07T04:04:16;17.42;;;11.20;;
46407;SDS011;32110;45.724;21.276;2023-05-07T04:06:41;17.50;;;11.00;;
46407;SDS011;32110;45.724;21.276;2023-05-07T04:09:07;16.75;;;10.05;;
46407;SDS011;32110;45.724;21.276;2023-05-07T04:11:33;19.85;;;11.40;;
46407;SDS011;32110;45.724;21.276;2023-05-07T04:14:00;16.17;;;11.05;;
46407;SDS011;32110;45.724;21.276;2023-05-07T04:16:25;18.67;;;11.32;;
46407;SDS011;32110;45.724;21.276;2023-05-07T04:18:51;19.35;;;10.85;;
46407;SDS011;32110;45.724;21.276;2023-05-07T04:21:17;20.80;;;11.45;;
46407;SDS011;32110;45.724;21.276;2023-05-07T04:23:44;17.20;;;11.27;;
46407;SDS011;32110;45.724;21.276;2023-05-07T04:26:09;21.20;;;11.30;;
46407;SDS011;32110;45.724;21.276;2023-05-07T04:28:35;31.00;;;15.32;;
46407;SDS011;32110;45.724;21.276;2023-05-07T04:31:00;64.18;;;41.28;;
46407;SDS011;32110;45.724;21.276;2023-05-07T04:33:26;23.10;;;15.07;;
46407;SDS011;32110;45.724;21.276;2023-05-07T04:35:51;15.40;;;11.13;;
46407;SDS011;32110;45.724;21.276;2023-05-07T04:38:17;15.30;;;10.65;;
46407;SDS011;32110;45.724;21.276;2023-05-07T04:40:43;19.13;;;12.00;;
46407;SDS011;32110;45.724;21.276;2023-05-07T04:43:09;17.05;;;10.73;;
46407;SDS011;32110;45.724;21.276;2023-05-07T04:45:37;16.45;;;11.10;;
46407;SDS011;32110;45.724;21.276;2023-05-07T04:48:05;20.85;;;12.65;;
46407;SDS011;32110;45.724;21.276;2023-05-07T04:50:30;18.42;;;11.57;;
46407;SDS011;32110;45.724;21.276;2023-05-07T04:52:56;16.77;;;11.10;;
46407;SDS011;32110;45.724;21.276;2023-05-07T04:55:21;18.02;;;11.18;;
46407;SDS011;32110;45.724;21.276;2023-05-07T04:57:47;15.82;;;11.05;;
46407;SDS011;32110;45.724;21.276;2023-05-07T05:00:12;18.63;;;10.23;;
46407;SDS011;32110;45.724;21.276;2023-05-07T05:02:41;15.00;;;10.82;;
46407;SDS011;32110;45.724;21.276;2023-05-07T05:05:07;15.15;;;9.77;;
46407;SDS011;32110;45.724;21.276;2023-05-07T05:07:32;15.25;;;9.32;;
46407;SDS011;32110;45.724;21.276;2023-05-07T05:09:58;15.00;;;9.38;;
46407;SDS011;32110;45.724;21.276;2023-05-07T05:12:23;18.85;;;9.73;;
46407;SDS011;32110;45.724;21.276;2023-05-07T05:14:49;18.58;;;8.68;;
46407;SDS011;32110;45.724;21.276;2023-05-07T05:17:14;11.18;;;7.80;;
46407;SDS011;32110;45.724;21.276;2023-05-07T05:19:39;19.02;;;8.07;;
46407;SDS011;32110;45.724;21.276;2023-05-07T05:22:05;12.32;;;7.93;;
46407;SDS011;32110;45.724;21.276;2023-05-07T05:24:31;12.75;;;7.65;;
46407;SDS011;32110;45.724;21.276;2023-05-07T05:26:56;16.67;;;7.38;;
46407;SDS011;32110;45.724;21.276;2023-05-07T05:29:22;15.35;;;7.50;;
46407;SDS011;32110;45.724;21.276;2023-05-07T05:31:47;12.88;;;7.72;;
46407;SDS011;32110;45.724;21.276;2023-05-07T05:34:13;13.32;;;7.13;;
46407;SDS011;32110;45.724;21.276;2023-05-07T05:36:38;11.07;;;7.40;;
46407;SDS011;32110;45.724;21.276;2023-05-07T05:39:04;7.47;;;5.82;;
46407;SDS011;32110;45.724;21.276;2023-05-07T05:41:29;8.48;;;5.90;;
46407;SDS011;32110;45.724;21.276;2023-05-07T05:43:54;9.70;;;6.20;;
46407;SDS011;32110;45.724;21.276;2023-05-07T05:46:19;8.03;;;5.40;;
46407;SDS011;32110;45.724;21.276;2023-05-07T05:48:45;8.87;;;5.30;;
46407;SDS011;32110;45.724;21.276;2023-05-07T05:51:10;9.60;;;5.40;;
46407;SDS011;32110;45.724;21.276;2023-05-07T05:53:35;6.18;;;4.85;;
46407;SDS011;32110;45.724;21.276;2023-05-07T05:56:01;11.60;;;4.90;;
46407;SDS011;32110;45.724;21.276;2023-05-07T05:58:27;10.00;;;4.60;;
46407;SDS011;32110;45.724;21.276;2023-05-07T06:00:52;8.52;;;4.60;;
46407;SDS011;32110;45.724;21.276;2023-05-07T06:03:18;5.43;;;3.97;;
46407;SDS011;32110;45.724;21.276;2023-05-07T06:05:44;10.10;;;4.10;;
46407;SDS011;32110;45.724;21.276;2023-05-07T06:08:09;10.20;;;3.80;;
46407;SDS011;32110;45.724;21.276;2023-05-07T06:10:35;7.25;;;3.92;;
46407;SDS011;32110;45.724;21.276;2023-05-07T06:13:02;10.88;;;4.30;;
46407;SDS011;32110;45.724;21.276;2023-05-07T06:15:27;4.20;;;3.15;;
46407;SDS011;32110;45.724;21.276;2023-05-07T06:17:52;6.75;;;2.97;;
46407;SDS011;32110;45.724;21.276;2023-05-07T06:20:18;5.85;;;2.80;;
46407;SDS011;32110;45.724;21.276;2023-05-07T06:22:43;5.28;;;3.03;;
46407;SDS011;32110;45.724;21.276;2023-05-07T06:25:09;6.35;;;2.65;;
46407;SDS011;32110;45.724;21.276;2023-05-07T06:27:34;4.85;;;2.97;;
46407;SDS011;32110;45.724;21.276;2023-05-07T06:29:59;4.93;;;3.13;;
46407;SDS011;32110;45.724;21.276;2023-05-07T06:32:25;4.40;;;2.60;;
46407;SDS011;32110;45.724;21.276;2023-05-07T06:34:51;6.22;;;2.83;;
46407;SDS011;32110;45.724;21.276;2023-05-07T06:37:16;5.35;;;2.72;;
46407;SDS011;32110;45.724;21.276;2023-05-07T06:39:42;13.43;;;2.70;;
46407;SDS011;32110;45.724;21.276;2023-05-07T06:42:07;7.38;;;3.45;;
46407;SDS011;32110;45.724;21.276;2023-05-07T06:44:32;3.28;;;2.20;;
46407;SDS011;32110;45.724;21.276;2023-05-07T06:46:58;8.55;;;2.38;;
46407;SDS011;32110;45.724;21.276;2023-05-07T06:49:23;4.78;;;2.08;;
46407;SDS011;32110;45.724;21.276;2023-05-07T06:51:49;3.55;;;2.08;;
46407;SDS011;32110;45.724;21.276;2023-05-07T06:54:14;6.13;;;2.10;;
46407;SDS011;32110;45.724;21.276;2023-05-07T06:56:40;8.00;;;2.33;;
46407;SDS011;32110;45.724;21.276;2023-05-07T06:59:05;4.55;;;2.08;;
46407;SDS011;32110;45.724;21.276;2023-05-07T07:01:31;6.50;;;2.30;;
46407;SDS011;32110;45.724;21.276;2023-05-07T07:03:56;4.07;;;2.30;;
46407;SDS011;32110;45.724;21.276;2023-05-07T07:06:22;3.38;;;2.08;;
46407;SDS011;32110;45.724;21.276;2023-05-07T07:08:47;3.42;;;2.00;;
46407;SDS011;32110;45.724;21.276;2023-05-07T07:11:12;4.93;;;2.38;;
46407;SDS011;32110;45.724;21.276;2023-05-07T07:13:38;4.50;;;1.77;;
46407;SDS011;32110;45.724;21.276;2023-05-07T07:16:05;6.18;;;2.15;;
46407;SDS011;32110;45.724;21.276;2023-05-07T07:18:30;5.68;;;2.20;;
46407;SDS011;32110;45.724;21.276;2023-05-07T07:20:55;2.70;;;2.03;;
46407;SDS011;32110;45.724;21.276;2023-05-07T07:23:21;3.05;;;2.25;;
46407;SDS011;32110;45.724;21.276;2023-05-07T07:25:46;9.60;;;2.50;;
46407;SDS011;32110;45.724;21.276;2023-05-07T07:28:12;5.10;;;2.40;;
46407;SDS011;32110;45.724;21.276;2023-05-07T07:30:38;4.90;;;2.15;;
46407;SDS011;32110;45.724;21.276;2023-05-07T07:33:04;4.90;;;2.03;;
46407;SDS011;32110;45.724;21.276;2023-05-07T07:35:30;4.57;;;2.05;;
46407;SDS011;32110;45.724;21.276;2023-05-07T07:37:56;4.88;;;2.03;;
46407;SDS011;32110;45.724;21.276;2023-05-07T07:40:21;3.17;;;2.17;;
46407;SDS011;32110;45.724;21.276;2023-05-07T07:42:47;5.40;;;2.05;;
46407;SDS011;32110;45.724;21.276;2023-05-07T07:45:12;2.92;;;1.92;;
46407;SDS011;32110;45.724;21.276;2023-05-07T07:47:39;4.85;;;2.10;;
46407;SDS011;32110;45.724;21.276;2023-05-07T07:50:05;6.25;;;1.73;;
46407;SDS011;32110;45.724;21.276;2023-05-07T07:52:31;5.28;;;1.90;;
46407;SDS011;32110;45.724;21.276;2023-05-07T07:54:56;6.90;;;2.15;;
46407;SDS011;32110;45.724;21.276;2023-05-07T07:57:22;3.85;;;1.52;;
46407;SDS011;32110;45.724;21.276;2023-05-07T07:59:47;5.82;;;1.80;;
46407;SDS011;32110;45.724;21.276;2023-05-07T08:02:12;3.55;;;2.00;;
46407;SDS011;32110;45.724;21.276;2023-05-07T08:04:38;4.65;;;1.90;;
46407;SDS011;32110;45.724;21.276;2023-05-07T08:07:03;6.57;;;1.90;;
46407;SDS011;32110;45.724;21.276;2023-05-07T08:09:29;3.42;;;2.05;;
46407;SDS011;32110;45.724;21.276;2023-05-07T08:11:54;4.20;;;2.05;;
46407;SDS011;32110;45.724;21.276;2023-05-07T08:14:19;5.93;;;2.03;;
46407;SDS011;32110;45.724;21.276;2023-05-07T08:16:45;3.70;;;1.88;;
46407;SDS011;32110;45.724;21.276;2023-05-07T08:19:10;5.28;;;1.80;;
46407;SDS011;32110;45.724;21.276;2023-05-07T08:21:38;4.28;;;2.17;;
46407;SDS011;32110;45.724;21.276;2023-05-07T08:24:04;3.72;;;2.17;;
46407;SDS011;32110;45.724;21.276;2023-05-07T08:26:30;2.80;;;1.90;;
46407;SDS011;32110;45.724;21.276;2023-05-07T08:28:55;2.80;;;1.90;;
46407;SDS011;32110;45.724;21.276;2023-05-07T08:31:20;3.83;;;1.77;;
46407;SDS011;32110;45.724;21.276;2023-05-07T08:33:46;6.25;;;1.98;;
46407;SDS011;32110;45.724;21.276;2023-05-07T08:36:11;10.07;;;2.00;;
46407;SDS011;32110;45.724;21.276;2023-05-07T08:38:37;3.20;;;1.95;;
46407;SDS011;32110;45.724;21.276;2023-05-07T08:41:02;3.80;;;1.92;;
46407;SDS011;32110;45.724;21.276;2023-05-07T08:43:27;4.03;;;1.90;;
46407;SDS011;32110;45.724;21.276;2023-05-07T08:45:57;5.95;;;2.10;;
46407;SDS011;32110;45.724;21.276;2023-05-07T08:48:25;2.83;;;2.03;;
46407;SDS011;32110;45.724;21.276;2023-05-07T08:53:19;5.30;;;2.03;;
46407;SDS011;32110;45.724;21.276;2023-05-07T08:55:45;4.45;;;2.00;;
46407;SDS011;32110;45.724;21.276;2023-05-07T08:58:12;8.43;;;2.33;;
46407;SDS011;32110;45.724;21.276;2023-05-07T09:00:37;2.45;;;2.00;;
46407;SDS011;32110;45.724;21.276;2023-05-07T09:03:05;5.10;;;2.10;;
46407;SDS011;32110;45.724;21.276;2023-05-07T09:05:30;3.55;;;2.15;;
46407;SDS011;32110;45.724;21.276;2023-05-07T09:07:58;5.38;;;2.42;;
46407;SDS011;32110;45.724;21.276;2023-05-07T09:10:25;7.20;;;2.08;;
46407;SDS011;32110;45.724;21.276;2023-05-07T09:12:51;6.85;;;2.20;;
46407;SDS011;32110;45.724;21.276;2023-05-07T09:15:17;4.35;;;2.10;;
46407;SDS011;32110;45.724;21.276;2023-05-07T09:17:43;5.53;;;2.65;;
46407;SDS011;32110;45.724;21.276;2023-05-07T09:20:09;7.38;;;2.33;;
46407;SDS011;32110;45.724;21.276;2023-05-07T09:22:37;3.95;;;2.00;;
46407;SDS011;32110;45.724;21.276;2023-05-07T09:25:03;4.10;;;2.55;;
46407;SDS011;32110;45.724;21.276;2023-05-07T09:27:30;2.55;;;2.15;;
46407;SDS011;32110;45.724;21.276;2023-05-07T09:29:55;5.43;;;2.22;;
46407;SDS011;32110;45.724;21.276;2023-05-07T09:32:21;3.78;;;2.20;;
46407;SDS011;32110;45.724;21.276;2023-05-07T09:34:46;3.20;;;2.38;;
46407;SDS011;32110;45.724;21.276;2023-05-07T09:37:12;6.10;;;2.45;;
46407;SDS011;32110;45.724;21.276;2023-05-07T09:39:45;5.38;;;2.25;;
46407;SDS011;32110;45.724;21.276;2023-05-07T09:42:13;5.50;;;2.58;;
46407;SDS011;32110;45.724;21.276;2023-05-07T09:44:43;6.10;;;2.20;;
46407;SDS011;32110;45.724;21.276;2023-05-07T09:47:09;2.40;;;2.05;;
46407;SDS011;32110;45.724;21.276;2023-05-07T09:49:37;8.10;;;2.47;;
46407;SDS011;32110;45.724;21.276;2023-05-07T09:52:05;3.88;;;2.28;;
46407;SDS011;32110;45.724;21.276;2023-05-07T09:57:01;5.60;;;2.28;;
46407;SDS011;32110;45.724;21.276;2023-05-07T09:59:28;3.80;;;2.22;;
46407;SDS011;32110;45.724;21.276;2023-05-07T10:01:59;3.40;;;2.00;;
46407;SDS011;32110;45.724;21.276;2023-05-07T10:04:26;6.03;;;2.60;;
46407;SDS011;32110;45.724;21.276;2023-05-07T10:06:52;8.75;;;2.60;;
46407;SDS011;32110;45.724;21.276;2023-05-07T10:09:18;5.10;;;2.10;;
46407;SDS011;32110;45.724;21.276;2023-05-07T10:11:45;4.57;;;1.92;;
46407;SDS011;32110;45.724;21.276;2023-05-07T10:14:10;3.40;;;2.10;;
46407;SDS011;32110;45.724;21.276;2023-05-07T10:16:36;5.07;;;2.05;;
46407;SDS011;32110;45.724;21.276;2023-05-07T10:19:06;2.63;;;2.03;;
46407;SDS011;32110;45.724;21.276;2023-05-07T10:21:36;4.95;;;2.30;;
46407;SDS011;32110;45.724;21.276;2023-05-07T10:24:22;6.72;;;2.42;;
46407;SDS011;32110;45.724;21.276;2023-05-07T10:26:51;3.47;;;2.10;;
46407;SDS011;32110;45.724;21.276;2023-05-07T10:31:48;3.53;;;2.20;;
46407;SDS011;32110;45.724;21.276;2023-05-07T10:34:21;5.03;;;2.10;;
46407;SDS011;32110;45.724;21.276;2023-05-07T10:36:51;3.25;;;2.28;;
46407;SDS011;32110;45.724;21.276;2023-05-07T10:39:20;6.95;;;2.13;;
46407;SDS011;32110;45.724;21.276;2023-05-07T10:41:47;4.80;;;1.85;;
46407;SDS011;32110;45.724;21.276;2023-05-07T10:44:24;3.92;;;1.90;;
46407;SDS011;32110;45.724;21.276;2023-05-07T10:47:03;4.63;;;2.65;;
46407;SDS011;32110;45.724;21.276;2023-05-07T10:49:29;4.40;;;2.40;;
46407;SDS011;32110;45.724;21.276;2023-05-07T10:54:43;5.00;;;2.05;;
46407;SDS011;32110;45.724;21.276;2023-05-07T10:59:57;7.18;;;2.75;;
46407;SDS011;32110;45.724;21.276;2023-05-07T11:02:22;3.25;;;2.30;;
46407;SDS011;32110;45.724;21.276;2023-05-07T11:07:55;3.35;;;2.08;;
46407;SDS011;32110;45.724;21.276;2023-05-07T11:10:21;4.40;;;2.22;;
46407;SDS011;32110;45.724;21.276;2023-05-07T11:12:48;6.25;;;2.42;;
46407;SDS011;32110;45.724;21.276;2023-05-07T11:15:14;4.50;;;2.17;;
46407;SDS011;32110;45.724;21.276;2023-05-07T11:18:02;2.92;;;2.10;;
46407;SDS011;32110;45.724;21.276;2023-05-07T11:26:08;4.07;;;2.33;;
46407;SDS011;32110;45.724;21.276;2023-05-07T11:28:38;3.88;;;2.22;;
46407;SDS011;32110;45.724;21.276;2023-05-07T11:31:07;3.75;;;2.40;;
46407;SDS011;32110;45.724;21.276;2023-05-07T11:33:33;3.85;;;2.30;;
46407;SDS011;32110;45.724;21.276;2023-05-07T11:36:00;6.15;;;2.20;;
46407;SDS011;32110;45.724;21.276;2023-05-07T11:38:27;3.35;;;2.03;;
46407;SDS011;32110;45.724;21.276;2023-05-07T11:40:55;2.72;;;2.17;;
46407;SDS011;32110;45.724;21.276;2023-05-07T11:43:22;3.95;;;2.00;;
46407;SDS011;32110;45.724;21.276;2023-05-07T11:45:47;5.85;;;2.08;;
46407;SDS011;32110;45.724;21.276;2023-05-07T11:48:14;5.75;;;2.25;;
46407;SDS011;32110;45.724;21.276;2023-05-07T11:53:27;3.65;;;2.30;;
46407;SDS011;32110;45.724;21.276;2023-05-07T11:55:56;4.57;;;2.30;;
46407;SDS011;32110;45.724;21.276;2023-05-07T11:58:23;4.47;;;2.33;;
46407;SDS011;32110;45.724;21.276;2023-05-07T12:00:53;4.20;;;2.07;;
46407;SDS011;32110;45.724;21.276;2023-05-07T12:03:19;2.47;;;2.15;;
46407;SDS011;32110;45.724;21.276;2023-05-07T12:05:45;4.00;;;1.95;;
46407;SDS011;32110;45.724;21.276;2023-05-07T12:08:14;2.42;;;2.22;;
46407;SDS011;32110;45.724;21.276;2023-05-07T12:10:44;3.25;;;2.20;;
46407;SDS011;32110;45.724;21.276;2023-05-07T12:13:23;3.50;;;2.30;;
46407;SDS011;32110;45.724;21.276;2023-05-07T12:15:53;2.85;;;2.45;;
46407;SDS011;32110;45.724;21.276;2023-05-07T12:18:20;4.30;;;2.30;;
46407;SDS011;32110;45.724;21.276;2023-05-07T12:20:46;5.35;;;2.30;;
46407;SDS011;32110;45.724;21.276;2023-05-07T12:23:12;4.30;;;2.15;;
46407;SDS011;32110;45.724;21.276;2023-05-07T12:25:39;5.55;;;2.33;;
46407;SDS011;32110;45.724;21.276;2023-05-07T12:28:05;3.78;;;1.90;;
46407;SDS011;32110;45.724;21.276;2023-05-07T12:30:38;7.10;;;2.17;;
46407;SDS011;32110;45.724;21.276;2023-05-07T12:33:04;3.47;;;2.10;;
46407;SDS011;32110;45.724;21.276;2023-05-07T12:35:30;2.70;;;1.92;;
46407;SDS011;32110;45.724;21.276;2023-05-07T12:37:56;4.05;;;2.10;;
46407;SDS011;32110;45.724;21.276;2023-05-07T12:40:24;3.90;;;2.20;;
46407;SDS011;32110;45.724;21.276;2023-05-07T12:43:00;3.15;;;2.20;;
46407;SDS011;32110;45.724;21.276;2023-05-07T12:45:26;6.68;;;2.60;;
46407;SDS011;32110;45.724;21.276;2023-05-07T12:47:51;2.63;;;2.03;;
46407;SDS011;32110;45.724;21.276;2023-05-07T12:50:17;4.32;;;2.45;;
46407;SDS011;32110;45.724;21.276;2023-05-07T12:52:42;4.20;;;2.13;;
46407;SDS011;32110;45.724;21.276;2023-05-07T12:55:13;8.40;;;2.53;;
46407;SDS011;32110;45.724;21.276;2023-05-07T12:57:47;4.47;;;1.85;;
46407;SDS011;32110;45.724;21.276;2023-05-07T13:00:14;3.22;;;2.30;;
46407;SDS011;32110;45.724;21.276;2023-05-07T13:02:41;4.55;;;2.28;;
46407;SDS011;32110;45.724;21.276;2023-05-07T13:05:10;3.28;;;2.15;;
46407;SDS011;32110;45.724;21.276;2023-05-07T13:07:36;5.10;;;2.42;;
46407;SDS011;32110;45.724;21.276;2023-05-07T13:10:02;3.78;;;2.25;;
46407;SDS011;32110;45.724;21.276;2023-05-07T13:12:28;5.57;;;1.92;;
46407;SDS011;32110;45.724;21.276;2023-05-07T13:14:53;3.00;;;2.30;;
46407;SDS011;32110;45.724;21.276;2023-05-07T13:17:19;4.13;;;2.08;;
46407;SDS011;32110;45.724;21.276;2023-05-07T13:19:44;4.47;;;2.00;;
46407;SDS011;32110;45.724;21.276;2023-05-07T13:22:10;5.22;;;2.22;;
46407;SDS011;32110;45.724;21.276;2023-05-07T13:24:35;3.50;;;1.80;;
46407;SDS011;32110;45.724;21.276;2023-05-07T13:27:01;6.78;;;2.40;;
46407;SDS011;32110;45.724;21.276;2023-05-07T13:29:26;5.25;;;2.80;;
46407;SDS011;32110;45.724;21.276;2023-05-07T13:31:58;3.28;;;2.42;;
46407;SDS011;32110;45.724;21.276;2023-05-07T13:34:24;2.13;;;1.92;;
46407;SDS011;32110;45.724;21.276;2023-05-07T13:36:50;3.92;;;2.00;;
46407;SDS011;32110;45.724;21.276;2023-05-07T13:39:16;8.52;;;2.10;;
46407;SDS011;32110;45.724;21.276;2023-05-07T13:41:41;3.33;;;2.13;;
46407;SDS011;32110;45.724;21.276;2023-05-07T13:44:07;5.20;;;1.85;;
46407;SDS011;32110;45.724;21.276;2023-05-07T13:46:32;4.45;;;2.38;;
46407;SDS011;32110;45.724;21.276;2023-05-07T13:48:58;3.72;;;2.83;;
46407;SDS011;32110;45.724;21.276;2023-05-07T13:51:24;5.63;;;2.10;;
46407;SDS011;32110;45.724;21.276;2023-05-07T13:53:50;3.42;;;2.28;;
46407;SDS011;32110;45.724;21.276;2023-05-07T13:56:17;4.55;;;2.15;;
46407;SDS011;32110;45.724;21.276;2023-05-07T13:58:42;5.20;;;2.83;;
46407;SDS011;32110;45.724;21.276;2023-05-07T14:01:08;3.47;;;2.20;;
46407;SDS011;32110;45.724;21.276;2023-05-07T14:03:33;7.70;;;2.05;;
46407;SDS011;32110;45.724;21.276;2023-05-07T14:05:59;2.83;;;2.17;;
46407;SDS011;32110;45.724;21.276;2023-05-07T14:08:26;5.35;;;2.50;;
46407;SDS011;32110;45.724;21.276;2023-05-07T14:10:52;3.17;;;2.08;;
46407;SDS011;32110;45.724;21.276;2023-05-07T14:13:18;4.18;;;2.20;;
46407;SDS011;32110;45.724;21.276;2023-05-07T14:15:44;5.07;;;2.15;;
46407;SDS011;32110;45.724;21.276;2023-05-07T14:18:11;3.85;;;2.40;;
46407;SDS011;32110;45.724;21.276;2023-05-07T14:20:37;7.95;;;2.72;;
46407;SDS011;32110;45.724;21.276;2023-05-07T14:23:03;5.90;;;2.20;;
46407;SDS011;32110;45.724;21.276;2023-05-07T14:25:28;4.72;;;2.20;;
46407;SDS011;32110;45.724;21.276;2023-05-07T14:27:54;4.15;;;2.60;;
46407;SDS011;32110;45.724;21.276;2023-05-07T14:30:19;3.47;;;2.42;;
46407;SDS011;32110;45.724;21.276;2023-05-07T14:32:44;3.35;;;2.13;;
46407;SDS011;32110;45.724;21.276;2023-05-07T14:35:10;7.10;;;2.05;;
46407;SDS011;32110;45.724;21.276;2023-05-07T14:37:35;4.57;;;2.17;;
46407;SDS011;32110;45.724;21.276;2023-05-07T14:40:01;5.20;;;2.30;;
46407;SDS011;32110;45.724;21.276;2023-05-07T14:42:26;4.70;;;1.92;;
46407;SDS011;32110;45.724;21.276;2023-05-07T14:44:51;2.35;;;2.08;;
46407;SDS011;32110;45.724;21.276;2023-05-07T14:47:17;4.45;;;2.20;;